Time,TemperatureF,DewpointF,PressureIn,WindDirection,WindDirectionDegrees,WindSpeedMPH,WindSpeedGustMPH,Humidity,HourlyPrecipIn,Conditions,Clouds,dailyrainin,SoftwareType,DateUTC
2013-02-04 07:43:00,26.5,22.0,29.87,SE,135,10.0,10.0,83,0.00,,,0.00,Wunderground v.1.15,2013-02-04 13:43:00,
2013-02-04 07:44:00,26.5,22.0,29.87,SE,128,9.0,10.0,83,0.00,,,0.00,Wunderground v.1.15,2013-02-04 13:44:00,
2013-02-04 07:46:00,26.5,22.0,29.87,SE,141,9.0,11.0,83,0.00,,,0.00,Wunderground v.1.15,2013-02-04 13:46:00,
2013-02-04 07:47:00,26.5,22.0,29.87,SE,139,9.0,11.0,83,0.00,,,0.00,Wunderground v.1.15,2013-02-04 13:47:00,
2013-02-04 07:52:00,26.6,22.1,29.87,SE,144,9.0,11.0,83,0.00,,,0.00,Wunderground v.1.15,2013-02-04 13:52:00,
2013-02-04 07:58:00,26.7,22.2,29.87,SE,144,9.0,11.0,83,0.00,,,0.00,Wunderground v.1.15,2013-02-04 13:58:00,
2013-02-04 08:04:00,26.8,22.3,29.87,SE,136,9.0,9.0,83,0.00,,,0.00,Wunderground v.1.15,2013-02-04 14:04:00,
2013-02-04 08:10:00,26.9,22.4,29.88,SE,126,8.0,8.0,83,0.00,,,0.00,Wunderground v.1.15,2013-02-04 14:10:00,
2013-02-04 08:15:00,26.9,22.4,29.88,East,90,6.0,8.0,83,0.00,,,0.00,Wunderground v.1.15,2013-02-04 14:15:00,
2013-02-04 08:21:00,27.1,22.6,29.88,ESE,103,5.0,5.0,83,0.00,,,0.00,Wunderground v.1.15,2013-02-04 14:21:00,
2013-02-04 08:26:00,27.1,22.9,29.87,ESE,115,6.0,7.0,84,0.00,,,0.00,Wunderground v.1.15,2013-02-04 14:26:00,
2013-02-04 08:32:00,27.2,22.7,29.87,ESE,105,6.0,7.0,83,0.00,,,0.00,Wunderground v.1.15,2013-02-04 14:32:00,
2013-02-04 08:38:00,27.3,22.8,29.87,East,96,6.0,8.0,83,0.00,,,0.00,Wunderground v.1.15,2013-02-04 14:38:00,
2013-02-04 08:43:00,27.4,22.9,29.87,East,89,6.0,7.0,83,0.00,,,0.00,Wunderground v.1.15,2013-02-04 14:43:00,
2013-02-04 08:49:00,27.4,22.9,29.87,East,101,6.0,7.0,83,0.00,,,0.00,Wunderground v.1.15,2013-02-04 14:49:00,
2013-02-04 08:55:00,27.5,23.0,29.87,East,86,6.0,7.0,83,0.00,,,0.00,Wunderground v.1.15,2013-02-04 14:55:00,
2013-02-04 09:00:00,27.7,23.2,29.87,East,99,6.0,7.0,83,0.00,,,0.00,Wunderground v.1.15,2013-02-04 15:00:00,
2013-02-04 09:06:00,27.8,23.3,29.87,East,95,6.0,7.0,83,0.00,,,0.00,Wunderground v.1.15,2013-02-04 15:06:00,
2013-02-04 09:12:00,27.9,23.1,29.87,East,84,7.0,8.0,82,0.00,,,0.00,Wunderground v.1.15,2013-02-04 15:12:00,
2013-02-04 09:17:00,28.1,23.3,29.87,ESE,107,7.0,8.0,82,0.00,,,0.00,Wunderground v.1.15,2013-02-04 15:17:00,
2013-02-04 09:23:00,28.3,23.5,29.87,ESE,117,8.0,10.0,82,0.00,,,0.00,Wunderground v.1.15,2013-02-04 15:23:00,
2013-02-04 09:29:00,28.5,23.7,29.86,ESE,122,8.0,10.0,82,0.00,,,0.00,Wunderground v.1.15,2013-02-04 15:29:00,
2013-02-04 09:35:00,28.6,23.5,29.87,ESE,111,7.0,9.0,81,0.00,,,0.00,Wunderground v.1.15,2013-02-04 15:35:00,
2013-02-04 09:40:00,28.7,23.9,29.86,ESE,105,8.0,8.0,82,0.00,,,0.00,Wunderground v.1.15,2013-02-04 15:40:00,
2013-02-04 09:45:00,28.7,23.9,29.87,ESE,110,7.0,9.0,82,0.00,,,0.00,Wunderground v.1.15,2013-02-04 15:45:00,
2013-02-04 09:51:00,28.9,23.8,29.86,ESE,115,7.0,8.0,81,0.00,,,0.00,Wunderground v.1.15,2013-02-04 15:51:00,
2013-02-04 09:56:00,29.1,24.0,29.86,ESE,109,7.0,8.0,81,0.00,,,0.00,Wunderground v.1.15,2013-02-04 15:56:00,
2013-02-04 10:01:00,29.2,24.1,29.86,SE,126,7.0,7.0,81,0.00,,,0.00,Wunderground v.1.15,2013-02-04 16:01:00,
2013-02-04 10:07:00,29.2,23.8,29.86,ESE,107,8.0,9.0,80,0.00,,,0.00,Wunderground v.1.15,2013-02-04 16:07:00,
2013-02-04 10:13:00,29.2,23.8,29.86,East,94,7.0,8.0,80,0.00,,,0.00,Wunderground v.1.15,2013-02-04 16:13:00,
2013-02-04 10:19:00,29.3,23.9,29.86,East,99,7.0,8.0,80,0.00,,,0.00,Wunderground v.1.15,2013-02-04 16:19:00,
2013-02-04 10:24:00,29.2,24.1,29.86,ESE,119,7.0,9.0,81,0.00,,,0.00,Wunderground v.1.15,2013-02-04 16:24:00,
2013-02-04 10:30:00,29.4,24.3,29.86,ESE,110,7.0,9.0,81,0.00,,,0.00,Wunderground v.1.15,2013-02-04 16:30:00,
2013-02-04 10:35:00,29.6,24.5,29.86,ESE,119,7.0,9.0,81,0.00,,,0.00,Wunderground v.1.15,2013-02-04 16:35:00,
2013-02-04 10:41:00,29.8,24.7,29.86,SE,124,7.0,7.0,81,0.00,,,0.00,Wunderground v.1.15,2013-02-04 16:41:00,
2013-02-04 10:46:00,29.7,24.3,29.86,ESE,113,6.0,8.0,80,0.00,,,0.00,Wunderground v.1.15,2013-02-04 16:46:00,
2013-02-04 10:52:00,30.0,24.6,29.86,ESE,103,6.0,6.0,80,0.00,,,0.00,Wunderground v.1.15,2013-02-04 16:52:00,
2013-02-04 10:57:00,30.1,24.7,29.86,ESE,104,5.0,7.0,80,0.00,,,0.00,Wunderground v.1.15,2013-02-04 16:57:00,
2013-02-04 11:04:00,30.4,25.0,29.86,ESE,106,6.0,6.0,80,0.00,,,0.00,Wunderground v.1.15,2013-02-04 17:04:00,
2013-02-04 11:09:00,30.6,25.2,29.86,East,88,5.0,7.0,80,0.00,,,0.00,Wunderground v.1.15,2013-02-04 17:09:00,
2013-02-04 11:15:00,30.7,25.3,29.86,East,84,5.0,6.0,80,0.00,,,0.00,Wunderground v.1.15,2013-02-04 17:15:00,
2013-02-04 11:20:00,30.8,25.1,29.85,East,88,5.0,5.0,79,0.00,,,0.00,Wunderground v.1.15,2013-02-04 17:20:00,
2013-02-04 11:25:00,31.0,25.2,29.85,East,80,5.0,7.0,79,0.00,,,0.00,Wunderground v.1.15,2013-02-04 17:25:00,
2013-02-04 11:31:00,31.4,25.6,29.85,ENE,69,5.0,6.0,79,0.00,,,0.00,Wunderground v.1.15,2013-02-04 17:31:00,
2013-02-04 11:36:00,31.4,25.3,29.85,ENE,78,5.0,6.0,78,0.00,,,0.00,Wunderground v.1.15,2013-02-04 17:36:00,
2013-02-04 11:42:00,31.7,25.6,29.85,East,92,3.0,5.0,78,0.00,,,0.00,Wunderground v.1.15,2013-02-04 17:42:00,
2013-02-04 11:47:00,31.9,25.8,29.84,ENE,70,2.0,5.0,78,0.00,,,0.00,Wunderground v.1.15,2013-02-04 17:47:00,
2013-02-04 11:53:00,32.3,26.2,29.85,ENE,70,2.0,3.0,78,0.00,,,0.00,Wunderground v.1.15,2013-02-04 17:53:00,
2013-02-04 11:59:00,32.4,26.0,29.84,ENE,70,2.0,3.0,77,0.00,,,0.00,Wunderground v.1.15,2013-02-04 17:59:00,
2013-02-04 12:05:00,32.6,25.9,29.84,ENE,74,2.0,3.0,76,0.00,,,0.00,Wunderground v.1.15,2013-02-04 18:05:00,
2013-02-04 12:10:00,32.7,26.3,29.84,NE,51,2.0,2.0,77,0.00,,,0.00,Wunderground v.1.15,2013-02-04 18:10:00,
2013-02-04 12:16:00,32.6,25.9,29.84,NE,51,2.0,4.0,76,0.00,,,0.00,Wunderground v.1.15,2013-02-04 18:16:00,
2013-02-04 12:22:00,32.4,26.0,29.84,NE,51,3.0,3.0,77,0.00,,,0.00,Wunderground v.1.15,2013-02-04 18:22:00,
2013-02-04 12:27:00,32.4,26.0,29.85,NE,51,2.0,4.0,77,0.00,,,0.00,Wunderground v.1.15,2013-02-04 18:27:00,
2013-02-04 12:33:00,32.5,25.8,29.85,North,360,2.0,3.0,76,0.00,,,0.00,Wunderground v.1.15,2013-02-04 18:33:00,
2013-02-04 12:39:00,32.4,25.7,29.85,NNW,337,3.0,5.0,76,0.00,,,0.00,Wunderground v.1.15,2013-02-04 18:39:00,
2013-02-04 12:44:00,32.3,25.6,29.85,North,360,3.0,5.0,76,0.00,,,0.00,Wunderground v.1.15,2013-02-04 18:44:00,
2013-02-04 12:49:00,32.3,26.2,29.84,North,355,4.0,6.0,78,0.00,,,0.00,Wunderground v.1.15,2013-02-04 18:49:00,
2013-02-04 12:55:00,32.4,26.0,29.84,NE,43,4.0,6.0,77,0.00,,,0.00,Wunderground v.1.15,2013-02-04 18:55:00,
2013-02-04 13:00:00,32.4,25.7,29.84,NNE,24,5.0,8.0,76,0.00,,,0.00,Wunderground v.1.15,2013-02-04 19:00:00,
2013-02-04 13:06:00,32.8,27.0,29.84,NNE,15,6.0,9.0,79,0.00,,,0.00,Wunderground v.1.15,2013-02-04 19:06:00,
2013-02-04 13:12:00,32.3,26.5,29.84,NNE,32,9.0,12.0,79,0.00,,,0.00,Wunderground v.1.15,2013-02-04 19:12:00,
2013-02-04 13:18:00,31.7,26.2,29.85,NE,50,9.0,12.0,80,0.00,,,0.00,Wunderground v.1.15,2013-02-04 19:18:00,
2013-02-04 13:23:00,31.4,26.2,29.85,NNE,27,10.0,10.0,81,0.00,,,0.00,Wunderground v.1.15,2013-02-04 19:23:00,
2013-02-04 13:29:00,31.3,26.1,29.85,NNE,23,9.0,12.0,81,0.00,,,0.00,Wunderground v.1.15,2013-02-04 19:29:00,
2013-02-04 13:34:00,31.3,26.4,29.85,NE,34,9.0,9.0,82,0.00,,,0.00,Wunderground v.1.15,2013-02-04 19:34:00,
2013-02-04 13:39:00,31.2,26.3,29.85,NNE,28,9.0,11.0,82,0.00,,,0.00,Wunderground v.1.15,2013-02-04 19:39:00,
2013-02-04 13:45:00,30.9,25.8,29.86,NE,34,10.0,10.0,81,0.00,,,0.00,Wunderground v.1.15,2013-02-04 19:45:00,
2013-02-04 13:51:00,30.9,26.3,29.86,North,9,10.0,10.0,83,0.00,,,0.00,Wunderground v.1.15,2013-02-04 19:51:00,
2013-02-04 13:56:00,31.0,25.9,29.86,NNE,16,9.0,10.0,81,0.00,,,0.00,Wunderground v.1.15,2013-02-04 19:56:00,
2013-02-04 14:01:00,30.8,25.7,29.87,NNE,17,9.0,10.0,81,0.00,,,0.00,Wunderground v.1.15,2013-02-04 20:01:00,
2013-02-04 14:07:00,30.6,25.5,29.87,North,5,9.0,14.0,81,0.00,,,0.00,Wunderground v.1.15,2013-02-04 20:07:00,
2013-02-04 14:13:00,30.3,25.5,29.87,North,10,10.0,11.0,82,0.00,,,0.00,Wunderground v.1.15,2013-02-04 20:13:00,
2013-02-04 14:18:00,30.2,25.7,29.88,North,5,10.0,11.0,83,0.00,,,0.00,Wunderground v.1.15,2013-02-04 20:18:00,
2013-02-04 14:24:00,30.1,25.3,29.88,NNE,15,9.0,10.0,82,0.00,,,0.00,Wunderground v.1.15,2013-02-04 20:24:00,
2013-02-04 14:30:00,30.1,25.6,29.88,NNE,13,9.0,9.0,83,0.00,,,0.00,Wunderground v.1.15,2013-02-04 20:30:00,
2013-02-04 14:35:00,30.0,25.8,29.88,North,355,9.0,9.0,84,0.00,,,0.00,Wunderground v.1.15,2013-02-04 20:35:00,
2013-02-04 14:41:00,30.0,25.5,29.88,North,5,9.0,10.0,83,0.00,,,0.00,Wunderground v.1.15,2013-02-04 20:41:00,
2013-02-04 14:47:00,30.0,25.2,29.88,NNE,21,10.0,12.0,82,0.00,,,0.00,Wunderground v.1.15,2013-02-04 20:47:00,
2013-02-04 14:53:00,30.1,25.3,29.88,NNE,23,9.0,11.0,82,0.00,,,0.00,Wunderground v.1.15,2013-02-04 20:53:00,
2013-02-04 14:59:00,30.0,24.9,29.88,North,10,10.0,14.0,81,0.00,,,0.00,Wunderground v.1.15,2013-02-04 20:59:00,
2013-02-04 15:04:00,30.0,25.2,29.89,North,5,9.0,10.0,82,0.00,,,0.00,Wunderground v.1.15,2013-02-04 21:04:00,
2013-02-04 15:10:00,30.0,25.2,29.89,NNE,15,9.0,12.0,82,0.00,,,0.00,Wunderground v.1.15,2013-02-04 21:10:00,
2013-02-04 15:15:00,29.9,24.8,29.88,NE,34,10.0,13.0,81,0.00,,,0.00,Wunderground v.1.15,2013-02-04 21:15:00,
2013-02-04 15:21:00,29.9,24.8,29.88,NNE,23,10.0,10.0,81,0.00,,,0.00,Wunderground v.1.15,2013-02-04 21:21:00,
2013-02-04 15:27:00,29.9,25.1,29.88,North,360,9.0,11.0,82,0.00,,,0.00,Wunderground v.1.15,2013-02-04 21:27:00,
2013-02-04 15:32:00,29.9,24.8,29.87,NNE,15,9.0,10.0,81,0.00,,,0.00,Wunderground v.1.15,2013-02-04 21:32:00,
2013-02-04 15:38:00,29.9,25.1,29.87,NNE,24,8.0,10.0,82,0.00,,,0.00,Wunderground v.1.15,2013-02-04 21:38:00,
2013-02-04 15:43:00,29.9,25.1,29.87,NNE,18,8.0,10.0,82,0.00,,,0.00,Wunderground v.1.15,2013-02-04 21:43:00,
2013-02-04 15:49:00,29.8,25.0,29.87,NNE,30,8.0,10.0,82,0.00,,,0.00,Wunderground v.1.15,2013-02-04 21:49:00,
2013-02-04 15:54:00,29.9,25.1,29.87,NNE,13,8.0,8.0,82,0.00,,,0.00,Wunderground v.1.15,2013-02-04 21:54:00,
2013-02-04 16:00:00,29.8,25.3,29.87,NNE,12,6.0,7.0,83,0.00,,,0.00,Wunderground v.1.15,2013-02-04 22:00:00,
2013-02-04 16:05:00,29.8,25.0,29.87,NE,43,7.0,8.0,82,0.00,,,0.00,Wunderground v.1.15,2013-02-04 22:05:00,
2013-02-04 16:11:00,29.8,25.3,29.87,NNE,19,8.0,8.0,83,0.00,,,0.00,Wunderground v.1.15,2013-02-04 22:11:00,
2013-02-04 16:17:00,29.8,25.3,29.87,NNE,33,7.0,9.0,83,0.00,,,0.00,Wunderground v.1.15,2013-02-04 22:17:00,
2013-02-04 16:23:00,29.8,25.3,29.87,NNE,28,7.0,8.0,83,0.00,,,0.00,Wunderground v.1.15,2013-02-04 22:23:00,
2013-02-04 16:29:00,29.8,25.3,29.88,North,355,7.0,9.0,83,0.00,,,0.00,Wunderground v.1.15,2013-02-04 22:29:00,
2013-02-04 16:34:00,29.7,25.2,29.88,NNW,343,7.0,8.0,83,0.00,,,0.00,Wunderground v.1.15,2013-02-04 22:34:00,
2013-02-04 16:39:00,29.7,25.5,29.89,NE,35,7.0,9.0,84,0.00,,,0.00,Wunderground v.1.15,2013-02-04 22:39:00,
2013-02-04 16:45:00,29.7,25.5,29.89,NNE,28,8.0,8.0,84,0.00,,,0.00,Wunderground v.1.15,2013-02-04 22:45:00,